Time;durP1;ratioP1;P1;durP2;ratioP2;P2;SDS_P1;SDS_P2;PMS_P1;PMS_P2;Temp;Humidity;BMP_temperature;BMP_pressure;BME280_temperature;BME280_humidity;BME280_pressure;Samples;Min_cycle;Max_cycle;Signal;HPM_P1;HPM_P2
2022/04/10 00:01:02;;;;;;;3.15;1.40;;;8.50;52.80;;;;;;2656055;52;21948;-84
2022/04/10 00:03:29;;;;;;;2.90;0.90;;;8.50;52.80;;;;;;2655027;52;21034;-83
2022/04/10 00:05:56;;;;;;;2.97;1.05;;;8.50;52.80;;;;;;2398097;52;21002;-83
2022/04/10 00:08:22;;;;;;;2.25;0.90;;;8.60;52.90;;;;;;2398424;52;20914;-83
2022/04/10 00:10:48;;;;;;;2.15;0.80;;;8.50;52.80;;;;;;2655330;52;20962;-82
2022/04/10 00:13:15;;;;;;;1.98;0.80;;;8.60;52.90;;;;;;2377737;52;21885;-84
2022/04/10 00:15:41;;;;;;;3.53;0.88;;;8.60;52.90;;;;;;2655109;52;20907;-83
2022/04/10 00:18:09;;;;;;;1.50;0.60;;;8.60;52.90;;;;;;2394644;52;22082;-83
2022/04/10 00:20:36;;;;;;;2.33;0.80;;;8.60;52.90;;;;;;2655243;52;20891;-83
2022/04/10 00:23:04;;;;;;;1.58;0.70;;;8.60;52.90;;;;;;2399779;52;21034;-82
2022/04/10 00:25:30;;;;;;;2.03;0.90;;;8.60;53.00;;;;;;2636246;51;20951;-82
2022/04/10 00:27:57;;;;;;;2.25;0.93;;;8.60;52.90;;;;;;2641526;51;20944;-83
2022/04/10 00:30:23;;;;;;;2.58;1.20;;;8.60;52.90;;;;;;2647197;51;21110;-82
2022/04/10 00:32:49;;;;;;;4.37;1.23;;;8.60;52.90;;;;;;2401304;52;20986;-83
2022/04/10 00:35:16;;;;;;;2.42;1.00;;;8.60;52.90;;;;;;2663270;52;21065;-83
2022/04/10 00:37:42;;;;;;;3.20;1.10;;;8.60;52.90;;;;;;2405119;52;20907;-85
2022/04/10 00:40:09;;;;;;;2.25;0.93;;;8.60;52.90;;;;;;2405159;52;21767;-83
2022/04/10 00:42:37;;;;;;;3.08;1.05;;;8.60;52.90;;;;;;2406438;55;21039;-85
2022/04/10 00:45:05;;;;;;;2.03;0.88;;;8.60;52.90;;;;;;2663003;52;21027;-84
2022/04/10 00:47:31;;;;;;;3.10;0.80;;;8.50;52.70;;;;;;2662495;52;21920;-85
2022/04/10 00:49:58;;;;;;;1.98;0.85;;;8.60;52.80;;;;;;2395379;52;21714;-84
2022/04/10 00:52:28;;;;;;;1.85;0.88;;;8.50;52.60;;;;;;2627148;51;20973;-84
2022/04/10 00:54:54;;;;;;;1.77;0.82;;;8.50;52.60;;;;;;2407261;53;21583;-84
2022/04/10 00:57:20;;;;;;;2.72;0.90;;;8.40;52.40;;;;;;2382385;52;21788;-84
2022/04/10 00:59:47;;;;;;;1.75;0.85;;;8.40;52.40;;;;;;2660268;52;21385;-83
2022/04/10 01:02:14;;;;;;;1.80;0.75;;;8.40;52.40;;;;;;2663247;52;20986;-83
2022/04/10 01:04:40;;;;;;;1.75;0.80;;;8.30;52.30;;;;;;2663932;52;20903;-84
2022/04/10 01:07:07;;;;;;;2.08;0.80;;;8.30;52.30;;;;;;2663190;52;21350;-84
2022/04/10 01:09:34;;;;;;;1.95;0.95;;;8.20;52.30;;;;;;2634673;51;20943;-84
2022/04/10 01:12:01;;;;;;;2.22;0.90;;;8.20;52.30;;;;;;2405488;52;21524;-85
2022/04/10 01:14:27;;;;;;;2.15;1.05;;;8.10;52.30;;;;;;2664117;52;20932;-83
2022/04/10 01:16:53;;;;;;;2.17;0.75;;;8.00;52.20;;;;;;2388534;52;20950;-83
2022/04/10 01:19:20;;;;;;;3.35;0.85;;;8.00;52.20;;;;;;2659610;51;20998;-83
2022/04/10 01:21:48;;;;;;;2.50;1.05;;;7.90;52.10;;;;;;2662601;52;21973;-83
2022/04/10 01:24:14;;;;;;;1.73;0.80;;;7.90;52.20;;;;;;2662443;52;20991;-84
2022/04/10 01:26:42;;;;;;;1.95;0.88;;;7.80;52.10;;;;;;2405608;53;20907;-84
2022/04/10 01:29:09;;;;;;;1.60;0.82;;;7.80;52.20;;;;;;2644510;51;20914;-85
2022/04/10 01:31:37;;;;;;;1.90;0.80;;;7.70;52.20;;;;;;2400594;53;20903;-84
2022/04/10 01:34:06;;;;;;;1.92;0.88;;;7.70;52.20;;;;;;2665962;52;20923;-85
2022/04/10 01:36:33;;;;;;;3.33;1.10;;;7.60;52.20;;;;;;2408134;53;21579;-84
2022/04/10 01:39:00;;;;;;;1.75;0.80;;;7.50;52.10;;;;;;2664056;52;21210;-84
2022/04/10 01:41:27;;;;;;;2.62;1.12;;;7.50;52.20;;;;;;2405624;53;20915;-84
2022/04/10 01:43:54;;;;;;;2.60;0.90;;;7.40;52.20;;;;;;2664034;52;21703;-83
2022/04/10 01:46:23;;;;;;;2.22;0.90;;;7.40;52.20;;;;;;2664164;52;20947;-84
2022/04/10 01:48:49;;;;;;;2.72;0.90;;;7.30;52.20;;;;;;2405434;52;20911;-83
2022/04/10 01:51:16;;;;;;;1.65;0.80;;;7.30;52.20;;;;;;2664120;52;20946;-84
2022/04/10 01:53:42;;;;;;;1.85;0.80;;;7.20;52.20;;;;;;2663951;52;20943;-84
2022/04/10 01:56:09;;;;;;;1.42;0.70;;;7.20;52.30;;;;;;2663467;52;20899;-83
2022/04/10 01:58:37;;;;;;;2.20;0.90;;;7.10;52.20;;;;;;2663529;52;20967;-85
2022/04/10 02:01:07;;;;;;;2.10;0.90;;;7.00;52.80;;;;;;2663922;52;20931;-85
2022/04/10 02:03:34;;;;;;;4.10;1.12;;;7.00;52.30;;;;;;2405415;53;20927;-84
2022/04/10 02:06:00;;;;;;;1.87;0.85;;;7.00;52.40;;;;;;2653747;51;21365;-84
2022/04/10 02:08:27;;;;;;;2.20;0.93;;;6.90;52.40;;;;;;2389686;53;20884;-84
2022/04/10 02:10:54;;;;;;;3.08;1.10;;;6.90;52.50;;;;;;2654564;51;21868;-84
2022/04/10 02:13:20;;;;;;;2.15;0.90;;;6.80;52.50;;;;;;2642593;51;20938;-84
2022/04/10 02:15:47;;;;;;;4.07;1.55;;;6.80;52.50;;;;;;2663842;52;20883;-84
2022/04/10 02:18:14;;;;;;;2.67;1.12;;;6.80;52.60;;;;;;2383936;53;20979;-85
2022/04/10 02:20:41;;;;;;;2.47;1.10;;;6.70;52.50;;;;;;2405103;52;20915;-83
2022/04/10 02:23:07;;;;;;;2.33;1.30;;;6.70;52.50;;;;;;2663426;52;21809;-84
2022/04/10 02:25:34;;;;;;;2.95;1.20;;;6.70;52.60;;;;;;2663681;52;20934;-84
2022/04/10 02:28:00;;;;;;;3.33;1.20;;;6.60;52.60;;;;;;2654344;51;22002;-83
2022/04/10 02:30:26;;;;;;;3.05;0.88;;;6.60;52.70;;;;;;2642870;51;20924;-85
2022/04/10 02:32:52;;;;;;;2.53;1.05;;;6.50;52.70;;;;;;2405459;53;21802;-84
2022/04/10 02:35:19;;;;;;;2.20;1.02;;;6.50;52.70;;;;;;2663142;52;20955;-84
2022/04/10 02:37:45;;;;;;;2.70;1.17;;;6.50;52.80;;;;;;2405244;52;20987;-84
2022/04/10 02:40:14;;;;;;;4.68;1.02;;;6.50;52.80;;;;;;2405588;53;20981;-84
2022/04/10 02:42:40;;;;;;;2.97;1.20;;;6.50;52.90;;;;;;2405533;53;20910;-85
2022/04/10 02:45:08;;;;;;;2.60;1.20;;;6.40;52.80;;;;;;2407018;52;21841;-84
2022/04/10 02:47:34;;;;;;;2.33;1.15;;;6.40;52.80;;;;;;2663498;52;20899;-84
2022/04/10 02:50:01;;;;;;;3.53;1.52;;;6.40;52.90;;;;;;2404747;52;20926;-84
2022/04/10 02:52:31;;;;;;;2.53;0.90;;;6.30;52.80;;;;;;2405541;52;21211;-84
2022/04/10 02:54:58;;;;;;;3.12;1.27;;;6.30;52.80;;;;;;2663838;52;20991;-84
2022/04/10 02:57:24;;;;;;;2.60;1.17;;;6.30;52.80;;;;;;2635461;51;20974;-84
2022/04/10 02:59:50;;;;;;;3.42;1.30;;;6.20;52.90;;;;;;2663651;51;20952;-83
2022/04/10 03:02:17;;;;;;;2.30;1.00;;;6.20;52.90;;;;;;2664011;52;20934;-84
2022/04/10 03:04:43;;;;;;;3.08;1.20;;;6.20;53.00;;;;;;2664422;52;21474;-84
2022/04/10 03:07:09;;;;;;;2.95;1.23;;;6.20;53.00;;;;;;2664506;52;21520;-84
2022/04/10 03:09:36;;;;;;;2.92;1.20;;;6.10;53.00;;;;;;2406302;52;21493;-85
2022/04/10 03:12:04;;;;;;;2.60;1.25;;;6.10;53.60;;;;;;2664402;52;20987;-84
2022/04/10 03:14:31;;;;;;;4.47;1.50;;;6.10;53.10;;;;;;2665040;52;20915;-84
2022/04/10 03:16:58;;;;;;;3.12;1.35;;;6.10;53.10;;;;;;2664580;52;20911;-84
2022/04/10 03:19:24;;;;;;;2.80;1.10;;;6.10;53.20;;;;;;2406776;52;20915;-84
2022/04/10 03:21:51;;;;;;;2.72;1.08;;;6.10;53.20;;;;;;2666226;52;20900;-84
2022/04/10 03:24:17;;;;;;;2.65;1.20;;;6.10;53.30;;;;;;2407507;53;20974;-85
2022/04/10 03:26:43;;;;;;;2.75;1.12;;;6.00;53.20;;;;;;2664370;52;21500;-84
2022/04/10 03:29:11;;;;;;;2.42;1.20;;;6.00;53.30;;;;;;2406053;52;21453;-84
2022/04/10 03:31:38;;;;;;;2.87;1.15;;;6.00;53.30;;;;;;2664612;52;20899;-84
2022/04/10 03:34:05;;;;;;;3.90;1.40;;;6.00;53.30;;;;;;2406107;52;20994;-85
2022/04/10 03:36:31;;;;;;;2.20;1.02;;;6.00;53.30;;;;;;2664135;52;20915;-84
2022/04/10 03:38:59;;;;;;;3.87;1.30;;;6.00;53.40;;;;;;2405402;52;20955;-84
2022/04/10 03:41:26;;;;;;;3.00;1.37;;;6.00;53.50;;;;;;2635169;52;20907;-84
2022/04/10 03:43:52;;;;;;;3.22;1.40;;;5.90;53.40;;;;;;2405881;53;20914;-84
2022/04/10 03:46:18;;;;;;;2.97;1.30;;;5.90;53.40;;;;;;2664147;52;20943;-84
2022/04/10 03:48:45;;;;;;;2.60;1.30;;;5.90;53.40;;;;;;2405461;52;20968;-84
2022/04/10 03:51:12;;;;;;;2.35;1.20;;;5.90;53.40;;;;;;2406222;52;20943;-83
2022/04/10 03:53:38;;;;;;;2.67;1.50;;;5.90;53.40;;;;;;2663982;52;20923;-85
2022/04/10 03:56:05;;;;;;;4.35;1.40;;;5.90;53.50;;;;;;2664070;52;21836;-84
2022/04/10 03:58:32;;;;;;;4.12;1.52;;;5.90;53.60;;;;;;2664200;52;20930;-84
2022/04/10 04:01:01;;;;;;;2.60;1.20;;;5.70;53.50;;;;;;2663418;52;21827;-84
2022/04/10 04:03:27;;;;;;;4.47;1.58;;;5.80;53.60;;;;;;2385242;53;21355;-85
2022/04/10 04:05:55;;;;;;;3.08;1.30;;;5.80;53.60;;;;;;2405857;52;21314;-84
2022/04/10 04:08:22;;;;;;;3.22;1.40;;;5.80;53.70;;;;;;2664432;52;20934;-84
2022/04/10 04:10:48;;;;;;;3.47;1.50;;;5.80;53.70;;;;;;2663980;52;20996;-84
2022/04/10 04:13:15;;;;;;;2.78;1.20;;;5.80;53.70;;;;;;2405999;53;21670;-84
2022/04/10 04:15:41;;;;;;;4.25;1.58;;;5.80;53.80;;;;;;2664803;52;20954;-84
2022/04/10 04:18:08;;;;;;;4.07;1.80;;;5.80;53.80;;;;;;2404519;52;20939;-85
2022/04/10 04:20:34;;;;;;;3.37;1.70;;;5.80;53.90;;;;;;2662759;52;20947;-84
2022/04/10 04:23:01;;;;;;;3.33;1.50;;;5.80;54.00;;;;;;2404580;52;21961;-85
2022/04/10 04:25:27;;;;;;;2.45;1.23;;;5.80;54.10;;;;;;2662593;52;20943;-84
2022/04/10 04:27:54;;;;;;;2.97;1.48;;;5.90;54.20;;;;;;2657706;52;20994;-85
2022/04/10 04:30:20;;;;;;;3.30;1.40;;;5.90;54.30;;;;;;2660200;51;21681;-85
2022/04/10 04:32:47;;;;;;;3.33;1.42;;;5.90;54.30;;;;;;2403977;52;21002;-84
2022/04/10 04:35:15;;;;;;;3.75;1.60;;;5.90;54.40;;;;;;2383803;52;20983;-84
2022/04/10 04:37:41;;;;;;;3.67;1.40;;;5.90;54.40;;;;;;2662936;52;20899;-85
2022/04/10 04:40:08;;;;;;;3.22;1.27;;;6.00;54.50;;;;;;2406419;52;21030;-84
2022/04/10 04:42:35;;;;;;;5.03;1.87;;;6.00;54.60;;;;;;2664760;52;20891;-85
2022/04/10 04:45:01;;;;;;;3.22;1.60;;;6.10;54.60;;;;;;2665194;52;20920;-84
2022/04/10 04:47:27;;;;;;;3.28;1.73;;;6.10;54.60;;;;;;2665781;52;20910;-84
2022/04/10 04:49:54;;;;;;;3.85;1.98;;;6.10;54.60;;;;;;2659887;52;21401;-84
2022/04/10 04:52:20;;;;;;;3.05;1.45;;;6.20;54.70;;;;;;2639229;51;20899;-84
2022/04/10 04:54:47;;;;;;;3.50;1.70;;;6.20;54.70;;;;;;2660137;52;20994;-84
2022/04/10 04:57:13;;;;;;;3.58;1.25;;;6.20;54.70;;;;;;2401214;53;21861;-85
2022/04/10 04:59:40;;;;;;;3.67;1.48;;;6.30;54.80;;;;;;2662337;52;20923;-84
2022/04/10 05:02:06;;;;;;;2.80;1.27;;;6.30;54.80;;;;;;2663966;52;21139;-84
2022/04/10 05:04:32;;;;;;;3.60;1.52;;;6.40;54.90;;;;;;2663047;52;21018;-84
2022/04/10 05:06:59;;;;;;;2.97;1.20;;;6.40;54.90;;;;;;2404140;53;20907;-85
2022/04/10 05:09:25;;;;;;;3.95;1.33;;;6.40;54.90;;;;;;2383907;53;20941;-84
2022/04/10 05:11:52;;;;;;;3.40;1.55;;;6.50;55.00;;;;;;2662384;52;20990;-83
2022/04/10 05:14:18;;;;;;;3.37;1.62;;;6.50;55.00;;;;;;2662892;52;20959;-84
2022/04/10 05:16:44;;;;;;;3.03;1.58;;;6.60;55.00;;;;;;2661932;52;21240;-84
2022/04/10 05:19:11;;;;;;;3.65;1.50;;;6.70;55.10;;;;;;2404306;52;20923;-84
2022/04/10 05:21:37;;;;;;;3.92;1.70;;;6.70;55.10;;;;;;2404566;52;21418;-84
2022/04/10 05:24:04;;;;;;;4.05;2.00;;;6.80;55.70;;;;;;2662705;52;20936;-84
2022/04/10 05:26:30;;;;;;;3.58;1.67;;;6.80;55.10;;;;;;2404504;52;21468;-85
2022/04/10 05:28:56;;;;;;;3.55;1.70;;;6.90;55.30;;;;;;2662866;52;20911;-85
2022/04/10 05:31:25;;;;;;;2.53;1.27;;;6.90;55.20;;;;;;2663144;52;21496;-83
2022/04/10 05:33:51;;;;;;;3.03;1.45;;;7.00;55.30;;;;;;2661400;52;20906;-85
2022/04/10 05:36:18;;;;;;;3.67;1.48;;;7.00;55.30;;;;;;2661582;52;20927;-84
2022/04/10 05:38:46;;;;;;;2.75;1.62;;;7.10;55.30;;;;;;2661372;52;20887;-84
2022/04/10 05:41:13;;;;;;;4.70;2.30;;;7.10;55.30;;;;;;2662027;52;20935;-84
2022/04/10 05:43:39;;;;;;;4.80;2.47;;;7.20;55.30;;;;;;2662152;52;20926;-83
2022/04/10 05:46:05;;;;;;;5.37;2.17;;;7.20;55.20;;;;;;2662574;52;20887;-84
2022/04/10 05:48:32;;;;;;;4.37;2.30;;;7.30;55.30;;;;;;2396002;52;21345;-85
2022/04/10 05:50:58;;;;;;;5.20;3.35;;;7.40;55.30;;;;;;2383731;52;20946;-85
2022/04/10 05:53:25;;;;;;;7.18;4.47;;;7.40;55.20;;;;;;2400351;52;20915;-83
2022/04/10 05:55:51;;;;;;;9.32;6.45;;;7.50;55.30;;;;;;2630499;51;21455;-84
2022/04/10 05:58:18;;;;;;;9.65;7.05;;;7.50;55.30;;;;;;2401980;53;21305;-83
2022/04/10 06:00:44;;;;;;;8.57;6.53;;;7.60;55.40;;;;;;2661219;52;21780;-84
2022/04/10 06:03:10;;;;;;;8.15;5.30;;;7.60;55.40;;;;;;2661551;52;20971;-82
2022/04/10 06:05:37;;;;;;;5.30;4.20;;;7.70;55.50;;;;;;2382958;52;20959;-83
2022/04/10 06:08:04;;;;;;;5.25;3.20;;;7.70;55.40;;;;;;2403270;52;20991;-84
2022/04/10 06:10:30;;;;;;;3.95;2.50;;;7.80;55.50;;;;;;2661289;52;20963;-84
2022/04/10 06:13:09;;;;;;;4.10;2.35;;;7.80;55.50;;;;;;2660183;52;21002;-82
2022/04/10 06:15:39;;;;;;;3.70;2.00;;;7.90;55.60;;;;;;2660443;52;20999;-85
2022/04/10 06:18:07;;;;;;;4.60;2.17;;;8.00;55.60;;;;;;2401538;53;20910;-84
2022/04/10 06:20:34;;;;;;;4.87;2.17;;;8.10;55.60;;;;;;2659928;52;20979;-84
2022/04/10 06:23:00;;;;;;;3.62;2.08;;;8.20;55.60;;;;;;2659638;52;21342;-83
2022/04/10 06:25:27;;;;;;;3.45;1.92;;;8.30;55.60;;;;;;2401503;52;21386;-85
2022/04/10 06:27:55;;;;;;;4.03;1.90;;;8.30;55.50;;;;;;2401085;52;21812;-84
2022/04/10 06:30:22;;;;;;;3.10;1.60;;;8.40;55.40;;;;;;2659372;52;20954;-83
2022/04/10 06:32:48;;;;;;;4.93;2.00;;;8.50;55.40;;;;;;2658809;52;20999;-84
2022/04/10 06:35:15;;;;;;;4.75;2.40;;;8.60;55.40;;;;;;2401361;52;20927;-84
2022/04/10 06:37:43;;;;;;;3.75;1.80;;;8.70;55.30;;;;;;2659923;52;21469;-84
2022/04/10 06:40:10;;;;;;;4.53;1.92;;;8.70;55.20;;;;;;2394230;52;21422;-84
2022/04/10 06:42:36;;;;;;;6.72;3.20;;;8.80;55.30;;;;;;2641730;51;20986;-84
2022/04/10 06:45:03;;;;;;;5.93;2.20;;;8.90;55.10;;;;;;2401470;53;21066;-85
2022/04/10 06:47:31;;;;;;;4.28;2.15;;;9.00;55.10;;;;;;2659675;52;20903;-83
2022/04/10 06:49:58;;;;;;;4.30;1.98;;;9.00;55.00;;;;;;2659281;52;20994;-83
2022/04/10 06:52:25;;;;;;;3.75;1.92;;;9.10;55.10;;;;;;2659487;52;20978;-84
2022/04/10 06:54:52;;;;;;;4.03;1.90;;;9.10;55.30;;;;;;2659019;52;21160;-83
2022/04/10 06:57:18;;;;;;;4.28;1.90;;;9.40;56.30;;;;;;2400888;52;20919;-83
2022/04/10 06:59:44;;;;;;;3.37;1.70;;;9.60;56.50;;;;;;2658195;52;20999;-84
2022/04/10 07:02:11;;;;;;;3.83;1.62;;;9.80;55.90;;;;;;2658623;52;20950;-84
2022/04/10 07:04:37;;;;;;;3.70;1.80;;;10.00;54.50;;;;;;2400513;52;20939;-84
2022/04/10 07:07:03;;;;;;;3.55;2.05;;;10.10;54.00;;;;;;2658516;52;20895;-83
2022/04/10 07:09:29;;;;;;;3.33;1.85;;;10.20;53.60;;;;;;2659004;52;21770;-83
2022/04/10 07:11:56;;;;;;;3.12;1.45;;;10.20;53.30;;;;;;2658744;52;20958;-84
2022/04/10 07:14:22;;;;;;;4.40;1.85;;;10.20;53.60;;;;;;2659660;52;20929;-82
2022/04/10 07:16:48;;;;;;;4.37;1.95;;;10.30;54.00;;;;;;2659532;52;20911;-83
2022/04/10 07:19:15;;;;;;;3.62;1.80;;;10.50;54.30;;;;;;2658856;52;21576;-82
2022/04/10 07:24:28;;;;;;;3.47;1.65;;;10.80;54.00;;;;;;2381181;52;21057;-83
2022/04/10 07:26:54;;;;;;;3.83;1.80;;;10.90;53.40;;;;;;2658645;52;20903;-83
2022/04/10 07:29:21;;;;;;;3.85;1.62;;;11.00;53.60;;;;;;2381549;52;20926;-84
2022/04/10 07:31:47;;;;;;;3.22;1.85;;;11.20;54.10;;;;;;2658576;51;20899;-84
2022/04/10 07:34:13;;;;;;;3.65;2.00;;;11.40;54.60;;;;;;2659059;52;21034;-83
2022/04/10 07:36:40;;;;;;;4.03;1.90;;;11.60;54.80;;;;;;2631752;51;20933;-82
2022/04/10 07:39:08;;;;;;;2.80;1.55;;;11.90;54.70;;;;;;2647973;51;21418;-82
2022/04/10 07:41:34;;;;;;;5.50;1.70;;;12.20;54.80;;;;;;2389408;53;20923;-84
2022/04/10 07:44:00;;;;;;;3.58;1.90;;;12.40;54.40;;;;;;2400246;52;20958;-83
2022/04/10 07:49:11;;;;;;;3.37;1.67;;;12.70;53.00;;;;;;2659309;52;20918;-83
2022/04/10 07:51:37;;;;;;;3.80;1.85;;;12.70;52.20;;;;;;2650201;51;20941;-83
2022/04/10 07:54:04;;;;;;;4.65;1.70;;;12.70;51.50;;;;;;2638576;51;20951;-84
2022/04/10 07:56:31;;;;;;;4.37;2.10;;;12.70;51.30;;;;;;2631494;51;20920;-83
2022/04/10 07:58:57;;;;;;;4.20;2.10;;;12.70;51.20;;;;;;2660274;52;20887;-84
2022/04/10 08:01:24;;;;;;;3.70;1.85;;;12.60;50.90;;;;;;2660204;52;21508;-85
2022/04/10 08:03:52;;;;;;;6.28;3.28;;;12.60;51.00;;;;;;2632367;51;21004;-83
2022/04/10 08:06:19;;;;;;;6.20;2.87;;;12.60;51.10;;;;;;2399167;52;20935;-84
2022/04/10 08:08:45;;;;;;;4.07;2.15;;;12.60;51.30;;;;;;2659096;52;20957;-82
2022/04/10 08:11:12;;;;;;;4.82;1.75;;;12.60;51.40;;;;;;2658420;52;21358;-82
2022/04/10 08:13:38;;;;;;;4.62;1.95;;;12.60;51.60;;;;;;2659255;52;21460;-82
2022/04/10 08:16:04;;;;;;;4.78;1.67;;;12.70;51.90;;;;;;2657568;52;20907;-81
2022/04/10 08:18:31;;;;;;;4.87;1.87;;;12.80;52.20;;;;;;2658560;52;20927;-82
2022/04/10 08:20:57;;;;;;;3.47;1.90;;;13.00;52.10;;;;;;2659412;52;20899;-84
2022/04/10 08:23:25;;;;;;;3.75;2.10;;;13.10;52.00;;;;;;2652793;52;21049;-82
2022/04/10 08:25:51;;;;;;;4.00;1.62;;;13.20;51.80;;;;;;2633546;51;21437;-84
2022/04/10 08:28:17;;;;;;;3.15;1.35;;;13.30;51.60;;;;;;2655433;52;20891;-82
2022/04/10 08:30:44;;;;;;;3.12;1.48;;;13.40;51.60;;;;;;2628809;51;20919;-79
2022/04/10 08:33:11;;;;;;;3.17;1.67;;;13.40;51.40;;;;;;2396948;52;21046;-81
2022/04/10 08:35:37;;;;;;;4.75;2.50;;;13.50;51.40;;;;;;2634827;51;20986;-80
2022/04/10 08:38:04;;;;;;;4.18;2.33;;;13.60;51.50;;;;;;2396644;53;21263;-81
2022/04/10 08:40:31;;;;;;;4.72;2.58;;;13.70;51.50;;;;;;2647780;52;20919;-80
2022/04/10 08:43:04;;;;;;;5.62;2.28;;;13.80;51.30;;;;;;2642609;51;21310;-82
2022/04/10 08:45:30;;;;;;;;;;;13.90;51.00;;;;;;2651950;51;20916;-82
2022/04/10 08:47:57;;;;;;;5.45;2.05;;;14.00;50.60;;;;;;2655793;51;20069;-82
2022/04/10 08:50:24;;;;;;;3.78;1.90;;;14.00;50.80;;;;;;2655775;52;20923;-82
2022/04/10 08:52:52;;;;;;;5.97;1.75;;;14.10;50.50;;;;;;2399036;53;20911;-82
2022/04/10 08:55:20;;;;;;;3.37;1.80;;;14.20;50.30;;;;;;2657323;52;20923;-81
2022/04/10 08:57:46;;;;;;;3.10;1.30;;;14.20;49.70;;;;;;2397755;53;20927;-83
2022/04/10 09:00:17;;;;;;;3.95;1.85;;;14.30;49.90;;;;;;2378970;53;20969;-83
2022/04/10 09:02:52;;;;;;;3.60;1.98;;;14.40;49.90;;;;;;2399785;52;20915;-82
2022/04/10 09:05:21;;;;;;;4.07;1.77;;;14.50;50.10;;;;;;2399070;53;20935;-82
2022/04/10 09:08:10;;;;;;;3.60;1.62;;;14.60;49.60;;;;;;2657798;52;20923;-81
2022/04/10 09:11:02;;;;;;;5.72;1.90;;;14.70;48.80;;;;;;2652364;52;20973;-81
2022/04/10 09:13:38;;;;;;;3.85;1.52;;;14.70;48.90;;;;;;2385380;52;20959;-82
2022/04/10 09:16:15;;;;;;;3.58;1.80;;;14.90;48.90;;;;;;2633162;51;21871;-80
2022/04/10 09:19:18;;;;;;;4.80;1.90;;;14.90;48.70;;;;;;2376771;53;21053;-82
2022/04/10 09:21:45;;;;;;;4.10;1.62;;;15.00;49.00;;;;;;2643465;51;20931;-81
2022/04/10 09:24:12;;;;;;;4.07;1.48;;;15.20;49.20;;;;;;2377731;53;21534;-83
2022/04/10 09:26:44;;;;;;;3.78;1.60;;;15.30;48.70;;;;;;2656102;52;21345;-83
2022/04/10 09:29:10;;;;;;;3.37;1.45;;;15.30;47.80;;;;;;2398906;52;20903;-82
2022/04/10 09:31:39;;;;;;;3.87;1.70;;;15.40;48.00;;;;;;2386615;52;20957;-82
2022/04/10 09:34:07;;;;;;;3.00;1.25;;;15.50;48.00;;;;;;2390686;52;20958;-81
2022/04/10 09:36:40;;;;;;;2.87;1.20;;;15.50;48.00;;;;;;2638770;51;21465;-81
2022/04/10 09:39:29;;;;;;;4.03;1.70;;;15.60;48.10;;;;;;2647180;51;20887;-81
2022/04/10 09:42:06;;;;;;;3.55;1.73;;;15.70;48.30;;;;;;2656792;52;21387;-82
2022/04/10 09:44:33;;;;;;;4.47;1.70;;;15.90;48.30;;;;;;2656764;52;21121;-80
2022/04/10 09:47:01;;;;;;;3.87;1.50;;;16.00;48.20;;;;;;2397202;52;20999;-81
2022/04/10 09:49:40;;;;;;;3.03;1.35;;;16.10;47.70;;;;;;2656915;52;21014;-81
2022/04/10 09:52:17;;;;;;;4.25;1.40;;;16.20;47.20;;;;;;2399312;52;21074;-80
2022/04/10 09:54:46;;;;;;;4.78;1.52;;;16.30;47.00;;;;;;2656452;51;21473;-82
2022/04/10 09:57:17;;;;;;;2.75;1.20;;;16.50;47.90;;;;;;2656498;52;20950;-82
2022/04/10 09:59:47;;;;;;;2.78;1.15;;;16.70;48.20;;;;;;2397693;52;20942;-82
2022/04/10 10:02:20;;;;;;;2.22;0.95;;;16.90;48.40;;;;;;2398040;53;21462;-81
2022/04/10 10:04:47;;;;;;;2.75;1.00;;;17.10;47.90;;;;;;2656615;52;21062;-81
2022/04/10 10:07:15;;;;;;;2.17;0.93;;;17.40;47.80;;;;;;2398259;53;20960;-82
2022/04/10 10:09:42;;;;;;;2.87;0.90;;;17.50;47.20;;;;;;2656020;52;20935;-82
2022/04/10 10:12:08;;;;;;;3.55;1.10;;;17.50;46.60;;;;;;2653422;52;21086;-81
2022/04/10 10:14:36;;;;;;;2.85;1.02;;;17.50;45.90;;;;;;2656741;52;20914;-81
2022/04/10 10:17:04;;;;;;;3.00;1.17;;;17.40;45.40;;;;;;2396926;52;20983;-82
2022/04/10 10:19:39;;;;;;;3.85;1.58;;;17.30;44.90;;;;;;2398313;53;21799;-82
2022/04/10 10:22:08;;;;;;;2.75;1.23;;;17.20;44.60;;;;;;2626377;51;20958;-84
2022/04/10 10:26:20;;;;;;;2.72;1.25;;;17.10;44.40;;;;;;2656404;52;20931;-83
2022/04/10 10:31:32;;;;;;;3.72;1.48;;;16.80;44.10;;;;;;2656104;52;21231;-82
2022/04/10 10:34:02;;;;;;;3.75;1.35;;;16.60;44.30;;;;;;2397724;53;20998;-82
2022/04/10 10:36:29;;;;;;;2.95;1.20;;;16.40;43.80;;;;;;2397325;53;21275;-82
2022/04/10 10:38:56;;;;;;;2.78;1.10;;;16.30;43.70;;;;;;2635354;51;20922;-81
2022/04/10 10:41:32;;;;;;;2.83;1.00;;;16.10;43.60;;;;;;2649226;51;20895;-81
2022/04/10 10:46:04;;;;;;;1.85;0.80;;;16.10;43.70;;;;;;2397405;53;20895;-82
2022/04/10 10:48:50;;;;;;;2.85;1.20;;;16.00;43.60;;;;;;2399801;52;20908;-84
2022/04/10 10:51:40;;;;;;;2.15;0.95;;;15.80;43.80;;;;;;2658361;52;21915;-85
2022/04/10 10:54:11;;;;;;;4.25;1.75;;;15.80;43.00;;;;;;2658405;52;20946;-83
2022/04/10 10:56:50;;;;;;;3.12;1.40;;;15.70;43.30;;;;;;2628899;51;20902;-84
2022/04/10 10:59:38;;;;;;;3.17;1.20;;;15.60;43.40;;;;;;2654834;51;20923;-84
2022/04/10 11:02:13;;;;;;;2.15;1.10;;;15.60;43.20;;;;;;2400401;52;20927;-83
2022/04/10 11:04:50;;;;;;;2.62;1.05;;;15.50;43.80;;;;;;2657491;52;21010;-83
2022/04/10 11:07:27;;;;;;;3.53;1.15;;;15.50;43.80;;;;;;2659777;52;20915;-84
2022/04/10 11:10:29;;;;;;;2.78;1.10;;;15.50;43.90;;;;;;2646393;51;21010;-83
2022/04/10 11:13:06;;;;;;;2.65;1.08;;;15.50;43.50;;;;;;2393396;53;20979;-82
2022/04/10 11:15:34;;;;;;;5.03;2.33;;;15.50;43.70;;;;;;2658041;52;21976;-84
2022/04/10 11:18:35;;;;;;;4.55;2.00;;;15.50;43.90;;;;;;2658005;52;20875;-84
2022/04/10 11:21:17;;;;;;;2.60;0.93;;;15.50;43.30;;;;;;2403605;52;20928;-83
2022/04/10 11:23:48;;;;;;;4.80;1.30;;;15.40;43.00;;;;;;2657097;52;20970;-85
2022/04/10 11:26:16;;;;;;;2.72;1.10;;;15.40;43.30;;;;;;2399302;52;20915;-84
2022/04/10 11:28:54;;;;;;;2.20;1.17;;;15.40;42.50;;;;;;2656999;52;20954;-84
2022/04/10 11:31:38;;;;;;;2.53;1.10;;;15.30;41.80;;;;;;2653753;52;20899;-83
2022/04/10 11:34:19;;;;;;;2.00;0.88;;;15.20;41.80;;;;;;2629597;51;21499;-84
2022/04/10 11:37:16;;;;;;;3.78;1.02;;;15.10;42.00;;;;;;2399170;52;20959;-83
2022/04/10 11:39:43;;;;;;;2.12;0.88;;;15.10;41.70;;;;;;2386158;52;20990;-84
2022/04/10 11:42:09;;;;;;;2.17;0.80;;;15.00;42.20;;;;;;2401873;52;20919;-83
2022/04/10 11:44:36;;;;;;;2.78;0.73;;;14.90;41.90;;;;;;2655898;52;20911;-83
2022/04/10 11:47:05;;;;;;;2.37;0.80;;;14.80;41.80;;;;;;2656492;52;21863;-85
2022/04/10 11:49:31;;;;;;;1.77;0.82;;;14.80;41.90;;;;;;2657258;52;20947;-83
2022/04/10 11:51:58;;;;;;;1.65;0.62;;;14.70;41.90;;;;;;2640967;51;20934;-83
2022/04/10 11:54:34;;;;;;;1.48;0.60;;;14.70;42.10;;;;;;2644814;51;20920;-83
2022/04/10 11:57:01;;;;;;;2.85;0.68;;;14.80;42.10;;;;;;2656040;52;20950;-83
2022/04/10 11:59:34;;;;;;;2.65;1.15;;;14.70;42.30;;;;;;2649956;51;20974;-83
2022/04/10 12:02:02;;;;;;;3.83;1.60;;;14.70;42.30;;;;;;2655310;51;20919;-83
2022/04/10 12:04:29;;;;;;;2.83;1.12;;;14.70;42.60;;;;;;2642995;51;20943;-85
2022/04/10 12:07:13;;;;;;;4.20;1.37;;;14.80;43.00;;;;;;2642703;51;20915;-82
2022/04/10 12:09:40;;;;;;;2.85;1.37;;;14.90;42.30;;;;;;2656548;52;21979;-82
2022/04/10 12:12:06;;;;;;;2.97;1.20;;;15.00;42.90;;;;;;2397406;53;21335;-82
2022/04/10 12:14:33;;;;;;;2.67;1.00;;;15.10;42.70;;;;;;2654232;52;20953;-80
2022/04/10 12:17:00;;;;;;;2.47;0.90;;;15.20;43.10;;;;;;2653933;52;20958;-80
2022/04/10 12:19:36;;;;;;;2.92;1.08;;;15.30;43.40;;;;;;2654530;52;21059;-80
2022/04/10 12:22:03;;;;;;;2.62;1.05;;;15.50;43.10;;;;;;2654764;52;20910;-81
2022/04/10 12:24:30;;;;;;;3.53;1.00;;;15.70;43.00;;;;;;2655216;52;22362;-79
2022/04/10 12:26:57;;;;;;;1.98;0.73;;;15.80;43.70;;;;;;2654375;52;20898;-79
2022/04/10 12:29:23;;;;;;;3.10;0.80;;;16.00;43.00;;;;;;2654943;52;21574;-79
2022/04/10 12:31:50;;;;;;;1.83;0.82;;;16.10;43.30;;;;;;2395909;52;20988;-79
2022/04/10 12:34:17;;;;;;;1.80;0.93;;;16.30;43.40;;;;;;2395720;53;20974;-79
2022/04/10 12:36:47;;;;;;;2.60;0.88;;;16.50;43.40;;;;;;2395311;52;20922;-80
2022/04/10 12:39:26;;;;;;;1.65;0.70;;;16.60;43.60;;;;;;2395882;52;22085;-80
2022/04/10 12:42:07;;;;;;;1.58;0.73;;;16.80;42.70;;;;;;2655059;52;21022;-81
2022/04/10 12:44:34;;;;;;;2.33;1.02;;;16.90;42.50;;;;;;2386519;52;20993;-80
2022/04/10 12:47:01;;;;;;;2.20;1.00;;;17.10;43.00;;;;;;2384545;52;20967;-79
2022/04/10 12:49:27;;;;;;;2.35;0.80;;;17.30;43.20;;;;;;2653637;52;20911;-81
2022/04/10 12:51:56;;;;;;;1.45;0.65;;;17.40;43.10;;;;;;2375346;52;20973;-80
2022/04/10 12:54:46;;;;;;;2.03;0.80;;;17.60;43.00;;;;;;2649907;52;21508;-79
2022/04/10 12:57:14;;;;;;;2.95;0.93;;;17.80;41.90;;;;;;2395357;53;20911;-79
2022/04/10 12:59:44;;;;;;;2.78;0.90;;;18.00;43.10;;;;;;2382977;52;20918;-81
2022/04/10 13:02:26;;;;;;;2.78;0.90;;;18.10;42.80;;;;;;2397519;53;21665;-82
2022/04/10 13:04:56;;;;;;;1.98;0.75;;;18.30;41.60;;;;;;2397003;52;20962;-80
2022/04/10 13:07:24;;;;;;;1.92;0.73;;;18.40;41.20;;;;;;2395850;53;20922;-81
2022/04/10 13:10:09;;;;;;;1.52;0.70;;;18.50;40.90;;;;;;2655290;52;20971;-80
2022/04/10 13:12:38;;;;;;;2.25;0.75;;;18.50;40.90;;;;;;2654994;52;20935;-80